KPOU/POU METAR and TAF weather

Enter ICAO airport designator
Station Type Date Time Source
KPOU METAR 2021/09/28 15:44 UTC NOAA

KPOU 281544Z 00000KT 2SM TSRA BR BKN048 OVC080 17/16 A2983 RMK AO2 LTG DSNT E AND SE AND W TSB11E26B41 P0048 T01720156


Station Type Date Time Source
KPOU Decoded METAR 2021/09/28 15:44 UTC NOAA

POUGHKEEPSIE DUTCHESS CTY, NY, United States (KPOU) 41-38N 073-53W 46M
Sep 28, 2021 - 11:44 AM EDT / 2021.09.28 1544 UTC
Wind: Calm:0
Visibility: 2 mile(s):0
Sky conditions: overcast
Weather: rain with thunder; mist; Lightning observed
Precipitation last hour: 0.48 inches
Temperature: 63.0 F (17.2 C)
Dew Point: 60.1 F (15.6 C)
Relative Humidity: 90%
Pressure (altimeter): 29.83 in. Hg (1010 hPa)
ob: KPOU 281544Z 00000KT 2SM TSRA BR BKN048 OVC080 17/16 A2983 RMK AO2 LTG DSNT E AND SE AND W TSB11E26B41 P0048 T01720156
cycle: 15

Station Type Date Time Source
KPOU TAF 2021/09/28 15:59 UTC NOAA

TAF
AMD KPOU 281459Z 2815/2912 VRB03KT 5SM BR VCTS BKN050CB BKN100
TEMPO 2815/2818 2SM -TSRA BR BKN025CB
FM281800 34006KT P6SM BKN035 BKN050
FM290100 VRB03KT P6SM SCT050 BKN250
FM290900 00000KT P6SM SCT250

Example: see airport list